Airfield :
LOGIN :

Register | Disclaimer

   EN    FR    IT 

 










Legend :    VFR   Marginal VFR   IFR   Intensive IFR   Very Intensive IFR
Visi :
Ceiling :
>= 8 km
>= 3000ft
5 to 8 km
1000 to 3000 ft
1500m to 5 km
500 to 1000 ft
800 to 1500m
200 to 500 ft
< 800m
< 200 ft
Symbols :   Thunderstorms  Fog  Heavy snow  Heavy precipitations  Wind > 20 kt
SIGMETs :     Misc.  Thunderstorms  Icing  Turbulence  Mountain Waves  Volcanic Ashes






- Airport Elevation : 138 ft
- IATA code : BIO


LEBB - Bilbao

CURRENT METAR :
  • 220000Z AUTO VRB02KT 9999 FEW058 15/15 Q1014

EXPIRED METARs :
  • 212330Z AUTO 08003KT 9999 FEW045 SCT050 16/15 Q1014
  • 212300Z AUTO VRB02KT 9999 FEW037 BKN050 16/16 Q1014
  • 212230Z AUTO 00000KT 9999 FEW038 SCT049 BKN057 16/15 Q1014
  • 212200Z AUTO 27003KT 220V300 3600 BR FEW024 SCT031 BKN038 16/15 Q1014
  • 212130Z 29004KT 260V320 9000 -RA FEW025 SCT030 BKN040 16/15 Q1014 RERA TEMPO 3000 SHRA SCT030TCU

TAF TAF LEBB
Valid from the 22 at 00:00 until the 23 at 00:00 UTC


212300Z 2200/2224 30009KT 9999 SCT045 TX22/2212Z TN14/2206Z
PROB40
TEMPO 2200/2218 3000 RA SHRA BKN010 SCT030TCU
PROB40
TEMPO 2210/2220 34015G25KT
PROB40
TEMPO 2200/2207 3000 -RA BR BKN010
PROB30
TEMPO 2200/2207 0800 BCFG BKN002 BKN005



MET'MAP, your aeronautical weather chart ! - Copyright ORBIFLY December 2007 - Disclaimer

ORBIFLY MET'MAP TEAM :

Programming & Development : Alexandra Zaïnal
Concept & original design : Baudouin d'Aumeries
Assistance for programming : Marc-Olivier Méhu
Technical & hardware support : Manuel Goepfert

Contact : metmap@orbifly.com




SOURCES & CREDITS :

   NOAA